sensor_id;sensor_type;location;lat;lon;timestamp;pressure;altitude;pressure_sealevel;temperature;humidity
58991;BME280;44781;53.444;14.476;2023-03-01T00:01:18;103124.73;;;-2.65;68.44
58991;BME280;44781;53.444;14.476;2023-03-01T00:03:48;103124.87;;;-2.67;68.49
58991;BME280;44781;53.444;14.476;2023-03-01T00:06:20;103122.69;;;-2.64;68.65
58991;BME280;44781;53.444;14.476;2023-03-01T00:08:51;103119.48;;;-2.60;68.73
58991;BME280;44781;53.444;14.476;2023-03-01T00:11:20;103113.13;;;-2.55;68.63
58991;BME280;44781;53.444;14.476;2023-03-01T00:13:51;103107.81;;;-2.52;68.54
58991;BME280;44781;53.444;14.476;2023-03-01T00:16:30;103105.05;;;-2.52;68.48
58991;BME280;44781;53.444;14.476;2023-03-01T00:19:11;103103.46;;;-2.53;68.44
58991;BME280;44781;53.444;14.476;2023-03-01T00:21:41;103106.04;;;-2.55;68.30
58991;BME280;44781;53.444;14.476;2023-03-01T00:24:14;103107.02;;;-2.59;68.35
58991;BME280;44781;53.444;14.476;2023-03-01T00:26:43;103104.52;;;-2.62;68.29
58991;BME280;44781;53.444;14.476;2023-03-01T00:29:12;103095.63;;;-2.67;68.36
58991;BME280;44781;53.444;14.476;2023-03-01T00:31:40;103098.21;;;-2.67;68.69
58991;BME280;44781;53.444;14.476;2023-03-01T00:34:07;103095.89;;;-2.72;68.48
58991;BME280;44781;53.444;14.476;2023-03-01T00:36:36;103096.33;;;-2.77;68.30
58991;BME280;44781;53.444;14.476;2023-03-01T00:39:07;103099.58;;;-2.79;68.44
58991;BME280;44781;53.444;14.476;2023-03-01T00:41:34;103101.13;;;-2.79;68.50
58991;BME280;44781;53.444;14.476;2023-03-01T00:44:03;103103.08;;;-2.78;68.61
58991;BME280;44781;53.444;14.476;2023-03-01T00:46:30;103103.93;;;-2.78;68.63
58991;BME280;44781;53.444;14.476;2023-03-01T00:48:57;103106.00;;;-2.78;68.67
58991;BME280;44781;53.444;14.476;2023-03-01T00:51:27;103103.71;;;-2.80;68.53
58991;BME280;44781;53.444;14.476;2023-03-01T00:53:56;103101.77;;;-2.82;68.72
58991;BME280;44781;53.444;14.476;2023-03-01T00:56:27;103104.37;;;-2.82;68.77
58991;BME280;44781;53.444;14.476;2023-03-01T00:58:55;103106.76;;;-2.84;68.78
58991;BME280;44781;53.444;14.476;2023-03-01T01:01:27;103104.46;;;-2.87;68.88
58991;BME280;44781;53.444;14.476;2023-03-01T01:04:05;103103.53;;;-2.91;68.93
58991;BME280;44781;53.444;14.476;2023-03-01T01:06:35;103102.35;;;-2.99;68.51
58991;BME280;44781;53.444;14.476;2023-03-01T01:09:06;103098.65;;;-3.03;68.77
58991;BME280;44781;53.444;14.476;2023-03-01T01:11:33;103100.35;;;-3.05;68.89
58991;BME280;44781;53.444;14.476;2023-03-01T01:14:03;103100.20;;;-3.04;69.03
58991;BME280;44781;53.444;14.476;2023-03-01T01:16:30;103098.53;;;-3.00;69.14
58991;BME280;44781;53.444;14.476;2023-03-01T01:18:57;103093.59;;;-2.96;69.02
58991;BME280;44781;53.444;14.476;2023-03-01T01:21:25;103098.30;;;-2.92;69.27
58991;BME280;44781;53.444;14.476;2023-03-01T01:23:54;103098.52;;;-2.90;69.29
58991;BME280;44781;53.444;14.476;2023-03-01T01:26:27;103098.05;;;-2.89;69.48
58991;BME280;44781;53.444;14.476;2023-03-01T01:28:54;103096.83;;;-2.89;69.40
58991;BME280;44781;53.444;14.476;2023-03-01T01:31:23;103094.23;;;-2.89;69.35
58991;BME280;44781;53.444;14.476;2023-03-01T01:33:51;103095.59;;;-2.90;69.48
58991;BME280;44781;53.444;14.476;2023-03-01T01:36:18;103093.64;;;-2.92;69.51
58991;BME280;44781;53.444;14.476;2023-03-01T01:38:46;103097.08;;;-2.94;69.56
58991;BME280;44781;53.444;14.476;2023-03-01T01:41:14;103104.45;;;-2.98;69.32
58991;BME280;44781;53.444;14.476;2023-03-01T01:43:45;103105.57;;;-3.03;69.23
58991;BME280;44781;53.444;14.476;2023-03-01T01:46:31;103100.70;;;-3.04;69.33
58991;BME280;44781;53.444;14.476;2023-03-01T01:51:55;103091.39;;;-3.03;69.26
58991;BME280;44781;53.444;14.476;2023-03-01T01:54:29;103087.09;;;-3.02;69.55
58991;BME280;44781;53.444;14.476;2023-03-01T01:57:02;103085.05;;;-2.99;69.55
58991;BME280;44781;53.444;14.476;2023-03-01T01:59:31;103082.16;;;-2.97;69.67
58991;BME280;44781;53.444;14.476;2023-03-01T02:02:02;103077.48;;;-2.96;69.97
58991;BME280;44781;53.444;14.476;2023-03-01T02:04:33;103071.79;;;-2.96;69.93
58991;BME280;44781;53.444;14.476;2023-03-01T02:07:09;103068.12;;;-2.98;69.82
58991;BME280;44781;53.444;14.476;2023-03-01T02:09:42;103068.05;;;-3.03;69.76
58991;BME280;44781;53.444;14.476;2023-03-01T02:12:14;103064.15;;;-3.07;69.40
58991;BME280;44781;53.444;14.476;2023-03-01T02:14:43;103058.73;;;-3.11;69.53
58991;BME280;44781;53.444;14.476;2023-03-01T02:17:11;103054.88;;;-3.14;69.38
58991;BME280;44781;53.444;14.476;2023-03-01T02:22:22;103046.42;;;-3.13;69.61
58991;BME280;44781;53.444;14.476;2023-03-01T02:30:18;103034.58;;;-3.08;69.75
58991;BME280;44781;53.444;14.476;2023-03-01T02:32:47;103031.79;;;-3.09;69.74
58991;BME280;44781;53.444;14.476;2023-03-01T02:35:16;103032.80;;;-3.10;69.78
58991;BME280;44781;53.444;14.476;2023-03-01T02:37:45;103031.04;;;-3.12;69.79
58991;BME280;44781;53.444;14.476;2023-03-01T02:40:17;103024.13;;;-3.11;70.15
58991;BME280;44781;53.444;14.476;2023-03-01T02:42:55;103025.89;;;-3.10;70.22
58991;BME280;44781;53.444;14.476;2023-03-01T02:45:25;103024.00;;;-3.10;70.26
58991;BME280;44781;53.444;14.476;2023-03-01T02:47:55;103025.38;;;-3.10;70.17
58991;BME280;44781;53.444;14.476;2023-03-01T02:55:33;103005.64;;;-3.01;70.09
58991;BME280;44781;53.444;14.476;2023-03-01T02:58:03;103007.41;;;-2.98;70.07
58991;BME280;44781;53.444;14.476;2023-03-01T03:00:36;103006.55;;;-2.98;70.02
58991;BME280;44781;53.444;14.476;2023-03-01T03:03:07;103004.46;;;-2.99;69.85
58991;BME280;44781;53.444;14.476;2023-03-01T03:05:35;103009.95;;;-3.01;69.87
58991;BME280;44781;53.444;14.476;2023-03-01T03:08:03;103012.17;;;-3.03;69.59
58991;BME280;44781;53.444;14.476;2023-03-01T03:10:37;103016.93;;;-3.08;69.53
58991;BME280;44781;53.444;14.476;2023-03-01T03:13:07;103018.72;;;-3.15;69.57
58991;BME280;44781;53.444;14.476;2023-03-01T03:15:35;103016.73;;;-3.21;69.65
58991;BME280;44781;53.444;14.476;2023-03-01T03:18:05;103015.27;;;-3.25;69.76
58991;BME280;44781;53.444;14.476;2023-03-01T03:20:33;103009.65;;;-3.30;69.72
58991;BME280;44781;53.444;14.476;2023-03-01T03:23:01;103002.02;;;-3.31;69.91
58991;BME280;44781;53.444;14.476;2023-03-01T03:25:31;103000.64;;;-3.30;69.95
58991;BME280;44781;53.444;14.476;2023-03-01T03:27:58;103001.22;;;-3.28;69.96
58991;BME280;44781;53.444;14.476;2023-03-01T03:30:30;103002.79;;;-3.26;69.86
58991;BME280;44781;53.444;14.476;2023-03-01T03:32:59;103007.98;;;-3.26;69.91
58991;BME280;44781;53.444;14.476;2023-03-01T03:35:32;103012.52;;;-3.24;70.22
58991;BME280;44781;53.444;14.476;2023-03-01T03:38:04;103005.45;;;-3.23;70.03
58991;BME280;44781;53.444;14.476;2023-03-01T03:40:47;103003.04;;;-3.23;70.16
58991;BME280;44781;53.444;14.476;2023-03-01T03:43:17;102999.55;;;-3.25;70.05
58991;BME280;44781;53.444;14.476;2023-03-01T03:45:46;103000.55;;;-3.26;70.27
58991;BME280;44781;53.444;14.476;2023-03-01T03:48:13;103000.67;;;-3.28;70.09
58991;BME280;44781;53.444;14.476;2023-03-01T03:50:41;102994.77;;;-3.30;70.16
58991;BME280;44781;53.444;14.476;2023-03-01T03:53:13;102993.58;;;-3.29;70.41
58991;BME280;44781;53.444;14.476;2023-03-01T03:55:41;102987.55;;;-3.28;70.35
58991;BME280;44781;53.444;14.476;2023-03-01T03:58:09;102984.98;;;-3.28;70.49
58991;BME280;44781;53.444;14.476;2023-03-01T04:00:41;102984.81;;;-3.27;70.57
58991;BME280;44781;53.444;14.476;2023-03-01T04:03:10;102984.84;;;-3.24;70.74
58991;BME280;44781;53.444;14.476;2023-03-01T04:05:39;102985.20;;;-3.24;70.52
58991;BME280;44781;53.444;14.476;2023-03-01T04:08:08;102983.28;;;-3.25;70.57
58991;BME280;44781;53.444;14.476;2023-03-01T04:10:40;102982.23;;;-3.26;70.85
58991;BME280;44781;53.444;14.476;2023-03-01T04:13:11;102975.12;;;-3.27;70.75
58991;BME280;44781;53.444;14.476;2023-03-01T04:15:40;102969.50;;;-3.32;70.45
58991;BME280;44781;53.444;14.476;2023-03-01T04:18:14;102966.21;;;-3.33;70.46
58991;BME280;44781;53.444;14.476;2023-03-01T04:20:41;102968.30;;;-3.31;70.62
58991;BME280;44781;53.444;14.476;2023-03-01T04:23:16;102969.03;;;-3.29;70.95
58991;BME280;44781;53.444;14.476;2023-03-01T04:25:49;102968.22;;;-3.27;70.77
58991;BME280;44781;53.444;14.476;2023-03-01T04:28:22;102966.17;;;-3.25;70.82
58991;BME280;44781;53.444;14.476;2023-03-01T04:30:54;102962.95;;;-3.21;70.80
58991;BME280;44781;53.444;14.476;2023-03-01T04:33:23;102957.66;;;-3.17;70.95
58991;BME280;44781;53.444;14.476;2023-03-01T04:35:51;102951.63;;;-3.14;70.80
58991;BME280;44781;53.444;14.476;2023-03-01T04:38:19;102954.58;;;-3.14;70.87
58991;BME280;44781;53.444;14.476;2023-03-01T04:40:46;102953.40;;;-3.12;70.77
58991;BME280;44781;53.444;14.476;2023-03-01T04:43:15;102949.10;;;-3.11;70.70
58991;BME280;44781;53.444;14.476;2023-03-01T04:45:42;102948.77;;;-3.10;70.74
58991;BME280;44781;53.444;14.476;2023-03-01T04:48:09;102951.69;;;-3.11;70.56
58991;BME280;44781;53.444;14.476;2023-03-01T04:50:36;102949.92;;;-3.12;70.47
58991;BME280;44781;53.444;14.476;2023-03-01T04:53:03;102947.15;;;-3.14;70.57
58991;BME280;44781;53.444;14.476;2023-03-01T04:55:31;102946.82;;;-3.13;70.61
58991;BME280;44781;53.444;14.476;2023-03-01T04:57:58;102951.00;;;-3.11;70.83
58991;BME280;44781;53.444;14.476;2023-03-01T05:00:26;102951.23;;;-3.07;70.73
58991;BME280;44781;53.444;14.476;2023-03-01T05:02:55;102959.38;;;-3.06;70.50
58991;BME280;44781;53.444;14.476;2023-03-01T05:05:29;102955.57;;;-3.06;70.44
58991;BME280;44781;53.444;14.476;2023-03-01T05:07:59;102963.16;;;-3.07;70.52
58991;BME280;44781;53.444;14.476;2023-03-01T05:10:29;102970.73;;;-3.09;70.47
58991;BME280;44781;53.444;14.476;2023-03-01T05:13:01;102968.97;;;-3.11;70.38
58991;BME280;44781;53.444;14.476;2023-03-01T05:15:40;102973.96;;;-3.13;70.54
58991;BME280;44781;53.444;14.476;2023-03-01T05:18:07;102975.33;;;-3.14;70.54
58991;BME280;44781;53.444;14.476;2023-03-01T05:20:38;102971.67;;;-3.15;70.89
58991;BME280;44781;53.444;14.476;2023-03-01T05:23:05;102972.36;;;-3.16;70.97
58991;BME280;44781;53.444;14.476;2023-03-01T05:25:34;102976.02;;;-3.15;70.92
58991;BME280;44781;53.444;14.476;2023-03-01T05:28:02;102980.17;;;-3.14;70.77
58991;BME280;44781;53.444;14.476;2023-03-01T05:30:33;102980.55;;;-3.13;70.93
58991;BME280;44781;53.444;14.476;2023-03-01T05:33:01;102979.54;;;-3.10;70.82
58991;BME280;44781;53.444;14.476;2023-03-01T05:35:28;102981.48;;;-3.08;70.86
58991;BME280;44781;53.444;14.476;2023-03-01T05:37:57;102975.98;;;-3.05;70.82
58991;BME280;44781;53.444;14.476;2023-03-01T05:40:24;102973.94;;;-3.04;70.65
58991;BME280;44781;53.444;14.476;2023-03-01T05:42:56;102973.92;;;-3.05;70.61
58991;BME280;44781;53.444;14.476;2023-03-01T05:45:24;102974.90;;;-3.09;70.35
58991;BME280;44781;53.444;14.476;2023-03-01T05:47:54;102973.12;;;-3.12;70.73
58991;BME280;44781;53.444;14.476;2023-03-01T05:50:27;102972.20;;;-3.15;70.50
58991;BME280;44781;53.444;14.476;2023-03-01T05:55:26;102965.84;;;-3.24;70.54
58991;BME280;44781;53.444;14.476;2023-03-01T05:57:54;102965.11;;;-3.26;70.60
58991;BME280;44781;53.444;14.476;2023-03-01T06:00:21;102966.85;;;-3.25;70.83
58991;BME280;44781;53.444;14.476;2023-03-01T06:02:53;102960.30;;;-3.24;71.15
58991;BME280;44781;53.444;14.476;2023-03-01T06:05:21;102958.27;;;-3.21;71.08
58991;BME280;44781;53.444;14.476;2023-03-01T06:07:49;102956.05;;;-3.19;71.22
58991;BME280;44781;53.444;14.476;2023-03-01T06:10:18;102956.27;;;-3.18;71.02
58991;BME280;44781;53.444;14.476;2023-03-01T06:12:47;102953.48;;;-3.18;71.00
58991;BME280;44781;53.444;14.476;2023-03-01T06:15:16;102954.16;;;-3.20;71.06
58991;BME280;44781;53.444;14.476;2023-03-01T06:17:45;102958.43;;;-3.22;71.19
58991;BME280;44781;53.444;14.476;2023-03-01T06:20:21;102963.58;;;-3.25;71.07
58991;BME280;44781;53.444;14.476;2023-03-01T06:22:52;102963.90;;;-3.27;71.13
58991;BME280;44781;53.444;14.476;2023-03-01T06:25:21;102966.83;;;-3.27;71.46
58991;BME280;44781;53.444;14.476;2023-03-01T06:27:51;102970.64;;;-3.27;71.34
58991;BME280;44781;53.444;14.476;2023-03-01T06:30:23;102970.84;;;-3.25;71.56
58991;BME280;44781;53.444;14.476;2023-03-01T06:32:51;102968.96;;;-3.23;71.76
58991;BME280;44781;53.444;14.476;2023-03-01T06:35:19;102965.73;;;-3.19;71.83
58991;BME280;44781;53.444;14.476;2023-03-01T06:37:47;102966.81;;;-3.16;71.80
58991;BME280;44781;53.444;14.476;2023-03-01T06:40:15;102968.59;;;-3.13;71.84
58991;BME280;44781;53.444;14.476;2023-03-01T06:42:46;102966.71;;;-3.11;72.00
58991;BME280;44781;53.444;14.476;2023-03-01T06:45:15;102965.90;;;-3.09;72.19
58991;BME280;44781;53.444;14.476;2023-03-01T06:47:42;102960.23;;;-3.06;72.09
58991;BME280;44781;53.444;14.476;2023-03-01T06:50:09;102958.73;;;-3.04;72.29
58991;BME280;44781;53.444;14.476;2023-03-01T06:52:42;102958.63;;;-2.99;72.41
58991;BME280;44781;53.444;14.476;2023-03-01T06:55:14;102958.02;;;-2.93;72.49
58991;BME280;44781;53.444;14.476;2023-03-01T06:57:44;102960.19;;;-2.87;72.69
58991;BME280;44781;53.444;14.476;2023-03-01T07:00:11;102959.79;;;-2.79;72.84
58991;BME280;44781;53.444;14.476;2023-03-01T07:02:39;102957.50;;;-2.70;72.92
58991;BME280;44781;53.444;14.476;2023-03-01T07:05:07;102957.79;;;-2.61;73.08
58991;BME280;44781;53.444;14.476;2023-03-01T07:07:37;102960.14;;;-2.55;73.36
58991;BME280;44781;53.444;14.476;2023-03-01T07:10:06;102961.07;;;-2.50;73.47
58991;BME280;44781;53.444;14.476;2023-03-01T07:12:34;102955.41;;;-2.45;73.62
58991;BME280;44781;53.444;14.476;2023-03-01T07:15:01;102954.10;;;-2.39;73.69
58991;BME280;44781;53.444;14.476;2023-03-01T07:17:28;102952.81;;;-2.31;73.84
58991;BME280;44781;53.444;14.476;2023-03-01T07:19:56;102952.73;;;-2.23;73.93
58991;BME280;44781;53.444;14.476;2023-03-01T07:22:24;102956.67;;;-2.13;74.30
58991;BME280;44781;53.444;14.476;2023-03-01T07:24:51;102958.70;;;-2.02;74.45
58991;BME280;44781;53.444;14.476;2023-03-01T07:27:19;102956.05;;;-1.92;74.48
58991;BME280;44781;53.444;14.476;2023-03-01T07:29:46;102957.52;;;-1.84;74.65
58991;BME280;44781;53.444;14.476;2023-03-01T07:32:14;102964.89;;;-1.76;74.53
58991;BME280;44781;53.444;14.476;2023-03-01T07:34:42;102967.91;;;-1.68;74.85
58991;BME280;44781;53.444;14.476;2023-03-01T07:37:09;102966.60;;;-1.61;74.75
58991;BME280;44781;53.444;14.476;2023-03-01T07:39:37;102964.09;;;-1.51;74.81
58991;BME280;44781;53.444;14.476;2023-03-01T07:42:12;102962.98;;;-1.40;74.90
58991;BME280;44781;53.444;14.476;2023-03-01T07:44:44;102965.86;;;-1.29;74.93
58991;BME280;44781;53.444;14.476;2023-03-01T07:47:12;102969.42;;;-1.17;74.94
58991;BME280;44781;53.444;14.476;2023-03-01T07:49:39;102970.37;;;-1.06;74.92
58991;BME280;44781;53.444;14.476;2023-03-01T07:52:08;102964.36;;;-0.97;75.26
58991;BME280;44781;53.444;14.476;2023-03-01T07:54:44;102967.20;;;-0.86;75.04
58991;BME280;44781;53.444;14.476;2023-03-01T07:57:11;102965.38;;;-0.77;74.81
58991;BME280;44781;53.444;14.476;2023-03-01T07:59:39;102962.64;;;-0.69;74.83
58991;BME280;44781;53.444;14.476;2023-03-01T08:02:09;102951.38;;;-0.65;74.82
58991;BME280;44781;53.444;14.476;2023-03-01T08:05:00;102954.58;;;-0.50;74.80
58991;BME280;44781;53.444;14.476;2023-03-01T08:07:27;102953.95;;;-0.39;74.88
58991;BME280;44781;53.444;14.476;2023-03-01T08:09:55;102955.04;;;-0.27;74.78
58991;BME280;44781;53.444;14.476;2023-03-01T08:12:24;102951.95;;;-0.15;74.79
58991;BME280;44781;53.444;14.476;2023-03-01T08:15:26;102939.64;;;-0.08;74.86
58991;BME280;44781;53.444;14.476;2023-03-01T08:18:03;102945.09;;;0.13;75.03
58991;BME280;44781;53.444;14.476;2023-03-01T08:20:30;102936.59;;;0.22;74.95
58991;BME280;44781;53.444;14.476;2023-03-01T08:22:59;102938.86;;;0.33;74.81
58991;BME280;44781;53.444;14.476;2023-03-01T08:25:29;102931.05;;;0.40;74.87
58991;BME280;44781;53.444;14.476;2023-03-01T08:28:00;102938.02;;;0.53;74.74
58991;BME280;44781;53.444;14.476;2023-03-01T08:30:28;102929.84;;;0.62;74.67
58991;BME280;44781;53.444;14.476;2023-03-01T08:33:06;102923.59;;;0.72;74.63
58991;BME280;44781;53.444;14.476;2023-03-01T08:35:45;102922.89;;;0.85;74.67
58991;BME280;44781;53.444;14.476;2023-03-01T08:38:44;102924.95;;;0.98;74.56
58991;BME280;44781;53.444;14.476;2023-03-01T08:41:23;102926.84;;;1.12;74.54
58991;BME280;44781;53.444;14.476;2023-03-01T08:44:17;102922.46;;;1.26;74.55
58991;BME280;44781;53.444;14.476;2023-03-01T08:46:51;102917.89;;;1.37;74.25
58991;BME280;44781;53.444;14.476;2023-03-01T08:49:20;102919.27;;;1.47;74.19
58991;BME280;44781;53.444;14.476;2023-03-01T08:51:47;102917.83;;;1.57;73.97
58991;BME280;44781;53.444;14.476;2023-03-01T08:54:20;102915.69;;;1.66;73.85
58991;BME280;44781;53.444;14.476;2023-03-01T08:57:12;102915.48;;;1.74;73.48
58991;BME280;44781;53.444;14.476;2023-03-01T09:00:26;102915.10;;;1.83;73.04
58991;BME280;44781;53.444;14.476;2023-03-01T09:03:19;102913.99;;;1.92;72.51
58991;BME280;44781;53.444;14.476;2023-03-01T09:09:04;102911.61;;;2.12;71.98
58991;BME280;44781;53.444;14.476;2023-03-01T09:11:34;102913.27;;;2.24;71.50
58991;BME280;44781;53.444;14.476;2023-03-01T09:14:05;102911.79;;;2.37;71.34
58991;BME280;44781;53.444;14.476;2023-03-01T09:16:32;102909.95;;;2.49;70.95
58991;BME280;44781;53.444;14.476;2023-03-01T09:19:10;102906.70;;;2.63;70.51
58991;BME280;44781;53.444;14.476;2023-03-01T09:21:39;102902.75;;;2.75;70.31
58991;BME280;44781;53.444;14.476;2023-03-01T09:24:15;102904.73;;;2.88;70.03
58991;BME280;44781;53.444;14.476;2023-03-01T09:26:42;102904.45;;;2.99;69.76
58991;BME280;44781;53.444;14.476;2023-03-01T09:29:14;102901.71;;;3.11;69.43
58991;BME280;44781;53.444;14.476;2023-03-01T09:31:41;102898.63;;;3.21;69.39
58991;BME280;44781;53.444;14.476;2023-03-01T09:34:11;102898.85;;;3.31;69.25
58991;BME280;44781;53.444;14.476;2023-03-01T09:36:47;102901.71;;;3.41;68.93
58991;BME280;44781;53.444;14.476;2023-03-01T09:39:15;102904.56;;;3.51;68.51
58991;BME280;44781;53.444;14.476;2023-03-01T09:41:54;102900.96;;;3.60;67.98
58991;BME280;44781;53.444;14.476;2023-03-01T09:47:12;102905.61;;;3.78;67.45
58991;BME280;44781;53.444;14.476;2023-03-01T09:49:43;102908.64;;;3.87;66.99
58991;BME280;44781;53.444;14.476;2023-03-01T09:52:43;102908.36;;;3.95;66.48
58991;BME280;44781;53.444;14.476;2023-03-01T09:55:16;102906.11;;;4.06;66.27
58991;BME280;44781;53.444;14.476;2023-03-01T09:57:52;102903.16;;;4.16;66.02
58991;BME280;44781;53.444;14.476;2023-03-01T10:00:40;102898.66;;;4.24;65.74
58991;BME280;44781;53.444;14.476;2023-03-01T10:08:57;102893.15;;;4.52;64.85
58991;BME280;44781;53.444;14.476;2023-03-01T10:11:33;102891.59;;;4.61;64.63
58991;BME280;44781;53.444;14.476;2023-03-01T10:17:08;102894.45;;;4.78;63.87
58991;BME280;44781;53.444;14.476;2023-03-01T10:19:45;102889.73;;;4.86;63.61
58991;BME280;44781;53.444;14.476;2023-03-01T10:22:32;102884.34;;;4.94;63.40
58991;BME280;44781;53.444;14.476;2023-03-01T10:25:03;102881.71;;;5.04;63.11
58991;BME280;44781;53.444;14.476;2023-03-01T10:27:52;102872.48;;;5.11;62.83
58991;BME280;44781;53.444;14.476;2023-03-01T10:30:34;102875.11;;;5.19;62.52
58991;BME280;44781;53.444;14.476;2023-03-01T10:33:03;102874.08;;;5.27;62.22
58991;BME280;44781;53.444;14.476;2023-03-01T10:35:35;102868.33;;;5.34;61.99
58991;BME280;44781;53.444;14.476;2023-03-01T10:38:04;102861.84;;;5.42;61.87
58991;BME280;44781;53.444;14.476;2023-03-01T10:40:33;102859.35;;;5.53;61.72
58991;BME280;44781;53.444;14.476;2023-03-01T10:43:02;102857.05;;;5.62;61.65
58991;BME280;44781;53.444;14.476;2023-03-01T10:45:37;102851.93;;;5.71;61.59
58991;BME280;44781;53.444;14.476;2023-03-01T10:50:48;102861.36;;;5.88;60.98
58991;BME280;44781;53.444;14.476;2023-03-01T10:53:28;102854.22;;;5.95;60.69
58991;BME280;44781;53.444;14.476;2023-03-01T10:56:03;102852.30;;;6.02;60.62
58991;BME280;44781;53.444;14.476;2023-03-01T10:58:34;102857.73;;;6.10;60.30
58991;BME280;44781;53.444;14.476;2023-03-01T11:03:34;102847.86;;;6.26;60.13
58991;BME280;44781;53.444;14.476;2023-03-01T11:11:29;102844.95;;;6.51;59.82
58991;BME280;44781;53.444;14.476;2023-03-01T11:14:04;102844.41;;;6.59;59.72
58991;BME280;44781;53.444;14.476;2023-03-01T11:16:38;102843.16;;;6.66;59.85
58991;BME280;44781;53.444;14.476;2023-03-01T11:21:47;102840.94;;;6.84;59.77
58991;BME280;44781;53.444;14.476;2023-03-01T11:24:19;102839.29;;;6.93;59.68
58991;BME280;44781;53.444;14.476;2023-03-01T11:26:53;102826.96;;;6.94;59.38
58991;BME280;44781;53.444;14.476;2023-03-01T11:32:05;102836.77;;;7.20;59.45
58991;BME280;44781;53.444;14.476;2023-03-01T11:38:09;102831.01;;;7.36;59.10
58991;BME280;44781;53.444;14.476;2023-03-01T11:40:52;102828.90;;;7.49;58.85
58991;BME280;44781;53.444;14.476;2023-03-01T11:52:35;102816.41;;;7.99;58.14
58991;BME280;44781;53.444;14.476;2023-03-01T12:06:24;102794.58;;;8.53;57.48
58991;BME280;44781;53.444;14.476;2023-03-01T12:11:56;102790.19;;;8.77;56.81
58991;BME280;44781;53.444;14.476;2023-03-01T12:18:09;102782.89;;;8.98;56.44
58991;BME280;44781;53.444;14.476;2023-03-01T12:20:56;102780.20;;;9.09;55.91
58991;BME280;44781;53.444;14.476;2023-03-01T12:40:41;102759.23;;;9.84;54.61
58991;BME280;44781;53.444;14.476;2023-03-01T12:51:02;102748.73;;;10.24;53.47
58991;BME280;44781;53.444;14.476;2023-03-01T12:53:40;102749.90;;;10.35;53.41
58991;BME280;44781;53.444;14.476;2023-03-01T12:56:11;102748.73;;;10.45;53.04
58991;BME280;44781;53.444;14.476;2023-03-01T13:01:49;102739.60;;;10.68;52.26
58991;BME280;44781;53.444;14.476;2023-03-01T13:07:25;102734.80;;;10.92;51.92
58991;BME280;44781;53.444;14.476;2023-03-01T13:18:00;102731.91;;;11.31;50.46
58991;BME280;44781;53.444;14.476;2023-03-01T13:31:11;102702.29;;;11.61;50.19
58991;BME280;44781;53.444;14.476;2023-03-01T13:33:53;102699.42;;;11.69;49.71
58991;BME280;44781;53.444;14.476;2023-03-01T13:44:29;102695.86;;;12.12;49.48
58991;BME280;44781;53.444;14.476;2023-03-01T13:47:16;102692.64;;;12.19;49.04
58991;BME280;44781;53.444;14.476;2023-03-01T13:49:57;102690.94;;;12.29;48.91
58991;BME280;44781;53.444;14.476;2023-03-01T13:52:46;102692.60;;;12.37;48.86
58991;BME280;44781;53.444;14.476;2023-03-01T13:55:19;102686.99;;;12.46;48.87
58991;BME280;44781;53.444;14.476;2023-03-01T13:58:24;102683.22;;;12.57;49.16
58991;BME280;44781;53.444;14.476;2023-03-01T14:01:07;102686.05;;;12.67;48.60
58991;BME280;44781;53.444;14.476;2023-03-01T14:03:41;102683.28;;;12.72;48.32
58991;BME280;44781;53.444;14.476;2023-03-01T14:06:14;102680.73;;;12.80;48.78
58991;BME280;44781;53.444;14.476;2023-03-01T14:08:45;102676.10;;;12.90;48.26
58991;BME280;44781;53.444;14.476;2023-03-01T14:19:55;102664.61;;;13.21;47.66
58991;BME280;44781;53.444;14.476;2023-03-01T14:22:29;102660.67;;;13.28;47.45
58991;BME280;44781;53.444;14.476;2023-03-01T14:24:59;102656.56;;;13.32;47.18
58991;BME280;44781;53.444;14.476;2023-03-01T14:27:38;102656.34;;;13.38;47.47
58991;BME280;44781;53.444;14.476;2023-03-01T14:30:46;102657.08;;;13.47;47.56
58991;BME280;44781;53.444;14.476;2023-03-01T14:35:59;102658.36;;;13.59;46.80
58991;BME280;44781;53.444;14.476;2023-03-01T14:38:33;102651.45;;;13.68;46.84
58991;BME280;44781;53.444;14.476;2023-03-01T14:41:11;102645.14;;;13.78;46.76
58991;BME280;44781;53.444;14.476;2023-03-01T14:44:04;102647.73;;;13.86;46.22
58991;BME280;44781;53.444;14.476;2023-03-01T14:46:37;102649.78;;;13.90;45.75
58991;BME280;44781;53.444;14.476;2023-03-01T14:51:51;102650.11;;;14.05;45.43
58991;BME280;44781;53.444;14.476;2023-03-01T14:54:29;102646.08;;;14.13;44.96
58991;BME280;44781;53.444;14.476;2023-03-01T14:57:00;102647.40;;;14.20;44.49
58991;BME280;44781;53.444;14.476;2023-03-01T14:59:28;102649.11;;;14.27;44.10
58991;BME280;44781;53.444;14.476;2023-03-01T15:01:59;102647.06;;;14.34;43.87
58991;BME280;44781;53.444;14.476;2023-03-01T15:04:28;102647.58;;;14.41;43.33
58991;BME280;44781;53.444;14.476;2023-03-01T15:06:57;102646.01;;;14.46;42.79
58991;BME280;44781;53.444;14.476;2023-03-01T15:09:34;102638.14;;;14.49;42.62
58991;BME280;44781;53.444;14.476;2023-03-01T15:12:34;102637.92;;;14.53;42.51
58991;BME280;44781;53.444;14.476;2023-03-01T15:15:23;102638.86;;;14.55;42.13
58991;BME280;44781;53.444;14.476;2023-03-01T15:17:59;102638.26;;;14.56;42.01
58991;BME280;44781;53.444;14.476;2023-03-01T15:20:28;102632.45;;;14.58;41.81
58991;BME280;44781;53.444;14.476;2023-03-01T15:22:57;102632.18;;;14.60;41.80
58991;BME280;44781;53.444;14.476;2023-03-01T15:25:29;102630.79;;;14.62;41.55
58991;BME280;44781;53.444;14.476;2023-03-01T15:27:58;102632.17;;;14.63;41.71
58991;BME280;44781;53.444;14.476;2023-03-01T15:30:32;102628.92;;;14.63;41.73
58991;BME280;44781;53.444;14.476;2023-03-01T15:33:29;102625.77;;;14.62;41.49
58991;BME280;44781;53.444;14.476;2023-03-01T15:35:59;102629.44;;;14.64;41.66
58991;BME280;44781;53.444;14.476;2023-03-01T15:38:55;102627.96;;;14.62;41.59
58991;BME280;44781;53.444;14.476;2023-03-01T15:41:37;102624.75;;;14.59;41.52